Maersk Damietta — A8OU4 — position and weather

sailwx.info

Track history (hours):
 
Tides and Currents Weather Stations Pressure Air Temp Water Temp Dewpoint Dewpoint Depression Visibility Wind Speed Wind Dir Waves Ship Positions

Maersk Damietta

Last reported at 2014-Sep-17 21:15 UTC. Time now 2014-Sep-19 17:48 UTC.
Position N 29°21' W 094°48'.

Length 293 m; draft 11 m.

Type: Ship (hazmat cat B). MMSI: 636091506.

Date/timePositionNaut miles runAvg speedWind from/ knotsBaromVisibWave heightAir tempDewpointWater temp
2014-Sep-17 21:15N 29°21' W 094°48'1013.8
2014-Sep-17 20:33N 29°30' W 094°52'1111.4
2014-Sep-17 19:33N 29°40' W 094°59'2 1.6
2014-Sep-17 18:32N 29°41' W 095°00'0 0.0
2014-Sep-17 17:32N 29°41' W 095°00'0 0.0
2014-Sep-17 16:32N 29°41' W 095°00'0 0.0
2014-Sep-17 15:32N 29°41' W 095°00'0 0.0
2014-Sep-17 00:32N 29°41' W 095°00'0 0.0
2014-Sep-16 23:33N 29°41' W 095°00'0 0.0
2014-Sep-16 22:31N 29°41' W 095°00'0 0.0
2014-Sep-16 21:33N 29°41' W 095°00'0 0.0
2014-Sep-16 20:32N 29°41' W 095°00'0 0.0
2014-Sep-16 19:32N 29°41' W 095°00'0 0.0
2014-Sep-16 18:32N 29°41' W 095°00'0 0.0
2014-Sep-16 17:32N 29°41' W 095°00'0 0.0
2014-Sep-16 16:31N 29°41' W 095°00'0 0.0
2014-Sep-16 15:30N 29°41' W 095°00'0 0.0
2014-Sep-16 14:33N 29°41' W 095°00'0 0.0
2014-Sep-16 13:31N 29°41' W 095°00'0 0.0
2014-Sep-16 12:33N 29°41' W 095°00'0 0.0
2014-Sep-16 11:33N 29°41' W 095°00'0 0.0
2014-Sep-16 10:31N 29°41' W 095°00'2 2.1
2014-Sep-16 09:33N 29°40' W 094°58'1312.6
2014-Sep-16 08:33N 29°29' W 094°51'82516.8
2014-Sep-14 07:33N 25°39' W 079°57'1717.2
2014-Sep-14 06:34N 25°56' W 079°56'1615.9
2014-Sep-14 05:33N 26°12' W 079°55'1615.9
2014-Sep-14 04:33N 26°28' W 079°53'1615.9
2014-Sep-14 03:34N 26°43' W 079°52'1515.2
2014-Sep-14 02:34N 26°59' W 079°51'30716.1
2014-Sep-13 07:28N 32°01' W 080°49'1212.7
2014-Sep-13 06:33N 32°05' W 081°01'6 6.3
2014-Sep-13 05:33N 32°08' W 081°08'0 0.4
2014-Sep-13 04:32N 32°08' W 081°09'0 0.0
2014-Sep-13 03:23N 32°08' W 081°09'0 0.0
2014-Sep-13 02:29N 32°08' W 081°09'0 0.0
2014-Sep-13 01:32N 32°08' W 081°09'0 0.0
2014-Sep-12 22:17N 32°08' W 081°09'0 0.0
2014-Sep-12 21:32N 32°08' W 081°09'0 0.0
2014-Sep-12 20:29N 32°08' W 081°09'0 0.0
2014-Sep-12 19:26N 32°08' W 081°09'0 0.0
2014-Sep-12 18:32N 32°08' W 081°09'1 0.1
2014-Sep-12 10:26N 32°08' W 081°08'4 4.7
2014-Sep-12 09:32N 32°05' W 081°04'8 7.4
2014-Sep-12 08:30N 32°03' W 080°56'29913.0
2014-Sep-11 09:28N 34°30' W 075°44'28813.0
2014-Sep-10 11:23N 39°01' W 073°43'1514.2
2014-Sep-10 10:18N 39°16' W 073°37'1314.0
2014-Sep-10 09:23N 39°29' W 073°34'1213.9
2014-Sep-10 08:33N 39°40' W 073°31'1514.3
2014-Sep-10 07:32N 39°54' W 073°25'1212.6
2014-Sep-10 06:33N 40°06' W 073°29'1413.6
2014-Sep-10 05:33N 40°17' W 073°39'1212.1
2014-Sep-10 04:34N 40°27' W 073°48'1313.4
2014-Sep-10 03:33N 40°35' W 074°02'7 6.5
2014-Sep-10 02:31N 40°39' W 074°09'1 0.8
2014-Sep-10 01:28N 40°40' W 074°09'0 0.0
2014-Sep-10 00:31N 40°40' W 074°09'0 0.0
2014-Sep-09 23:31N 40°40' W 074°09'0 0.0
2014-Sep-09 22:31N 40°40' W 074°09'0 0.0
2014-Sep-09 21:31N 40°40' W 074°09'0 0.0
2014-Sep-09 20:31N 40°40' W 074°09'0 0.0
2014-Sep-09 19:31N 40°40' W 074°09'0 0.0
2014-Sep-09 18:31N 40°40' W 074°09'0 0.0
2014-Sep-09 17:31N 40°40' W 074°09'0 0.0
2014-Sep-09 16:31N 40°40' W 074°09'0 0.0
2014-Sep-09 15:28N 40°40' W 074°09'0 0.0
2014-Sep-09 14:31N 40°40' W 074°09'0 0.0
2014-Sep-09 13:31N 40°40' W 074°09'0 0.0
2014-Sep-09 12:28N 40°40' W 074°09'0 0.0
2014-Sep-09 11:31N 40°40' W 074°09'0 0.0
2014-Sep-09 10:31N 40°40' W 074°09'0 0.1
2014-Sep-09 09:33N 40°40' W 074°09'4 3.8
2014-Sep-09 08:33N 40°39' W 074°04'1212.0
2014-Sep-09 07:34N 40°29' W 073°55'1010.0
2014-Sep-09 06:32N 40°27' W 073°41'1414.4
2014-Sep-09 05:33N 40°28' W 073°23'1615.8
2014-Sep-09 04:31N 40°30' W 073°02'1515.6
2014-Sep-09 03:33N 40°30' W 072°42'1615.6
2014-Sep-09 02:33N 40°31' W 072°21'1615.7
2014-Sep-09 01:34N 40°31' W 072°01'1616.0
2014-Sep-09 00:33N 40°31' W 071°39'1615.8
2014-Sep-08 23:33N 40°32' W 071°19'1615.9
2014-Sep-08 22:33N 40°32' W 070°58'1716.5
2014-Sep-08 21:33N 40°32' W 070°36'1717.4
2014-Sep-08 20:33N 40°33' W 070°13'1817.8
2014-Sep-08 19:33N 40°33' W 069°50'1817.8
2014-Sep-08 18:33N 40°34' W 069°26'1717.5
2014-Sep-08 17:33N 40°32' W 069°04'1817.4
2014-Sep-08 16:33N 40°29' W 068°41'1717.0
2014-Sep-08 15:32N 40°25' W 068°19'1717.1
2014-Sep-08 14:32N 40°22' W 067°57'  
Track history (hours):
 
Tides and Currents Weather Stations Pressure Air Temp Water Temp Dewpoint Dewpoint Depression Visibility Wind Speed Wind Dir Waves Ship Positions

Maersk Damietta

Last reported at 2014-Sep-17 21:15 UTC. Time now 2014-Sep-19 17:48 UTC.
Position N 29°21' W 094°48'.

Length 293 m; draft 11 m.

Type: Ship (hazmat cat B). MMSI: 636091506.

Date/timePositionNaut miles runAvg speedWind from/ knotsBaromVisibWave heightAir tempDewpointWater temp
2014-Sep-17 21:15N 29°21' W 094°48'1013.8
2014-Sep-17 20:33N 29°30' W 094°52'1111.4
2014-Sep-17 19:33N 29°40' W 094°59'2 1.6
2014-Sep-17 18:32N 29°41' W 095°00'0 0.0
2014-Sep-17 17:32N 29°41' W 095°00'0 0.0
2014-Sep-17 16:32N 29°41' W 095°00'0 0.0
2014-Sep-17 15:32N 29°41' W 095°00'0 0.0
2014-Sep-17 00:32N 29°41' W 095°00'0 0.0
2014-Sep-16 23:33N 29°41' W 095°00'0 0.0
2014-Sep-16 22:31N 29°41' W 095°00'0 0.0
2014-Sep-16 21:33N 29°41' W 095°00'0 0.0
2014-Sep-16 20:32N 29°41' W 095°00'0 0.0
2014-Sep-16 19:32N 29°41' W 095°00'0 0.0
2014-Sep-16 18:32N 29°41' W 095°00'0 0.0
2014-Sep-16 17:32N 29°41' W 095°00'0 0.0
2014-Sep-16 16:31N 29°41' W 095°00'0 0.0
2014-Sep-16 15:30N 29°41' W 095°00'0 0.0
2014-Sep-16 14:33N 29°41' W 095°00'0 0.0
2014-Sep-16 13:31N 29°41' W 095°00'0 0.0
2014-Sep-16 12:33N 29°41' W 095°00'0 0.0
2014-Sep-16 11:33N 29°41' W 095°00'0 0.0
2014-Sep-16 10:31N 29°41' W 095°00'2 2.1
2014-Sep-16 09:33N 29°40' W 094°58'1312.6
2014-Sep-16 08:33N 29°29' W 094°51'82516.8
2014-Sep-14 07:33N 25°39' W 079°57'1717.2
2014-Sep-14 06:34N 25°56' W 079°56'1615.9
2014-Sep-14 05:33N 26°12' W 079°55'1615.9
2014-Sep-14 04:33N 26°28' W 079°53'1615.9
2014-Sep-14 03:34N 26°43' W 079°52'1515.2
2014-Sep-14 02:34N 26°59' W 079°51'30716.1
2014-Sep-13 07:28N 32°01' W 080°49'1212.7
2014-Sep-13 06:33N 32°05' W 081°01'6 6.3
2014-Sep-13 05:33N 32°08' W 081°08'0 0.4
2014-Sep-13 04:32N 32°08' W 081°09'0 0.0
2014-Sep-13 03:23N 32°08' W 081°09'0 0.0
2014-Sep-13 02:29N 32°08' W 081°09'0 0.0
2014-Sep-13 01:32N 32°08' W 081°09'0 0.0
2014-Sep-12 22:17N 32°08' W 081°09'0 0.0
2014-Sep-12 21:32N 32°08' W 081°09'0 0.0
2014-Sep-12 20:29N 32°08' W 081°09'0 0.0
2014-Sep-12 19:26N 32°08' W 081°09'0 0.0
2014-Sep-12 18:32N 32°08' W 081°09'1 0.1
2014-Sep-12 10:26N 32°08' W 081°08'4 4.7
2014-Sep-12 09:32N 32°05' W 081°04'8 7.4
2014-Sep-12 08:30N 32°03' W 080°56'29913.0
2014-Sep-11 09:28N 34°30' W 075°44'28813.0
2014-Sep-10 11:23N 39°01' W 073°43'1514.2
2014-Sep-10 10:18N 39°16' W 073°37'1314.0
2014-Sep-10 09:23N 39°29' W 073°34'1213.9
2014-Sep-10 08:33N 39°40' W 073°31'1514.3
2014-Sep-10 07:32N 39°54' W 073°25'1212.6
2014-Sep-10 06:33N 40°06' W 073°29'1413.6
2014-Sep-10 05:33N 40°17' W 073°39'1212.1
2014-Sep-10 04:34N 40°27' W 073°48'1313.4
2014-Sep-10 03:33N 40°35' W 074°02'7 6.5
2014-Sep-10 02:31N 40°39' W 074°09'1 0.8
2014-Sep-10 01:28N 40°40' W 074°09'0 0.0
2014-Sep-10 00:31N 40°40' W 074°09'0 0.0
2014-Sep-09 23:31N 40°40' W 074°09'0 0.0
2014-Sep-09 22:31N 40°40' W 074°09'0 0.0
2014-Sep-09 21:31N 40°40' W 074°09'0 0.0
2014-Sep-09 20:31N 40°40' W 074°09'0 0.0
2014-Sep-09 19:31N 40°40' W 074°09'0 0.0
2014-Sep-09 18:31N 40°40' W 074°09'0 0.0
2014-Sep-09 17:31N 40°40' W 074°09'0 0.0
2014-Sep-09 16:31N 40°40' W 074°09'0 0.0
2014-Sep-09 15:28N 40°40' W 074°09'0 0.0
2014-Sep-09 14:31N 40°40' W 074°09'0 0.0
2014-Sep-09 13:31N 40°40' W 074°09'0 0.0
2014-Sep-09 12:28N 40°40' W 074°09'0 0.0
2014-Sep-09 11:31N 40°40' W 074°09'0 0.0
2014-Sep-09 10:31N 40°40' W 074°09'0 0.1
2014-Sep-09 09:33N 40°40' W 074°09'4 3.8
2014-Sep-09 08:33N 40°39' W 074°04'1212.0
2014-Sep-09 07:34N 40°29' W 073°55'1010.0
2014-Sep-09 06:32N 40°27' W 073°41'1414.4
2014-Sep-09 05:33N 40°28' W 073°23'1615.8
2014-Sep-09 04:31N 40°30' W 073°02'1515.6
2014-Sep-09 03:33N 40°30' W 072°42'1615.6
2014-Sep-09 02:33N 40°31' W 072°21'1615.7
2014-Sep-09 01:34N 40°31' W 072°01'1616.0
2014-Sep-09 00:33N 40°31' W 071°39'1615.8
2014-Sep-08 23:33N 40°32' W 071°19'1615.9
2014-Sep-08 22:33N 40°32' W 070°58'1716.5
2014-Sep-08 21:33N 40°32' W 070°36'1717.4
2014-Sep-08 20:33N 40°33' W 070°13'1817.8
2014-Sep-08 19:33N 40°33' W 069°50'1817.8
2014-Sep-08 18:33N 40°34' W 069°26'1717.5
2014-Sep-08 17:33N 40°32' W 069°04'1817.4
2014-Sep-08 16:33N 40°29' W 068°41'1717.0
2014-Sep-08 15:32N 40°25' W 068°19'1717.1
2014-Sep-08 14:32N 40°22' W 067°57'  

Dump ship's entire track history